Orting, Washington
Current Conditions -  °F | °C
As of 7:58 PM on Wednesday 26 Nov 2014 (Local Time) from KTCM Reporting Station
Overcast Overcast  
Wind Chill: 51°   Ceiling: 11000
Heat Index: 51°   Visibility: 10mi
Dew Point: 51°   Wind: 2mph
Humidity: 99%   Direction: 150°SSE
Pressure: 29.91"   Gusts: NA
Location:  47.1°N, 122.2°W
Report Text: KTCM 270358Z AUTO 15002KT 10SM OVC110 11/10 A2991 RMK AO2 RAB0328E0337 SLP133 P0000 T01050104 $
Loading
Personal Weather Stations






























Interactive Weather Map New forecast layout! Learn more

10-Day Weather Forecast

Advertisements
Track Severe Weather on mobile